sensor_id;sensor_type;location;lat;lon;timestamp;pressure;altitude;pressure_sealevel;temperature;humidity
50384;BME280;36301;48.310;12.786;2023-07-13T03:00:46;96166.03;;;17.30;100.00
50384;BME280;36301;48.310;12.786;2023-07-13T03:03:14;96177.50;;;17.27;100.00
50384;BME280;36301;48.310;12.786;2023-07-13T03:05:42;96179.75;;;17.32;100.00
50384;BME280;36301;48.310;12.786;2023-07-13T03:08:09;96183.13;;;17.36;100.00
50384;BME280;36301;48.310;12.786;2023-07-13T03:10:37;96193.78;;;17.40;100.00
50384;BME280;36301;48.310;12.786;2023-07-13T03:13:04;96187.63;;;17.43;100.00
50384;BME280;36301;48.310;12.786;2023-07-13T03:15:30;96189.44;;;17.49;100.00
50384;BME280;36301;48.310;12.786;2023-07-13T03:17:57;96200.50;;;17.51;100.00
50384;BME280;36301;48.310;12.786;2023-07-13T03:20:23;96198.94;;;17.54;100.00
50384;BME280;36301;48.310;12.786;2023-07-13T03:22:50;96200.75;;;17.60;100.00
50384;BME280;36301;48.310;12.786;2023-07-13T03:25:17;96208.38;;;17.62;100.00
50384;BME280;36301;48.310;12.786;2023-07-13T03:27:43;96212.97;;;17.61;100.00
50384;BME280;36301;48.310;12.786;2023-07-13T03:30:10;96214.91;;;17.61;100.00
50384;BME280;36301;48.310;12.786;2023-07-13T03:32:37;96210.75;;;17.56;100.00
50384;BME280;36301;48.310;12.786;2023-07-13T03:35:04;96210.50;;;17.47;100.00
50384;BME280;36301;48.310;12.786;2023-07-13T03:37:30;96200.63;;;17.44;100.00
50384;BME280;36301;48.310;12.786;2023-07-13T03:39:57;96191.16;;;17.36;100.00
50384;BME280;36301;48.310;12.786;2023-07-13T03:42:23;96160.50;;;17.14;100.00
50384;BME280;36301;48.310;12.786;2023-07-13T03:44:50;96206.16;;;17.30;100.00
50384;BME280;36301;48.310;12.786;2023-07-13T03:47:18;96208.13;;;17.26;100.00
50384;BME280;36301;48.310;12.786;2023-07-13T03:49:46;96203.19;;;17.24;100.00
50384;BME280;36301;48.310;12.786;2023-07-13T03:52:13;96212.72;;;17.25;100.00
50384;BME280;36301;48.310;12.786;2023-07-13T03:54:39;96203.66;;;17.16;100.00
50384;BME280;36301;48.310;12.786;2023-07-13T03:57:06;96221.03;;;17.31;100.00
50384;BME280;36301;48.310;12.786;2023-07-13T03:59:33;96206.59;;;17.25;100.00
50384;BME280;36301;48.310;12.786;2023-07-13T04:02:01;96216.44;;;17.31;100.00
50384;BME280;36301;48.310;12.786;2023-07-13T04:04:28;96212.22;;;17.34;100.00
50384;BME280;36301;48.310;12.786;2023-07-13T04:06:54;96214.63;;;17.25;100.00
50384;BME280;36301;48.310;12.786;2023-07-13T04:09:21;96216.41;;;17.35;100.00
50384;BME280;36301;48.310;12.786;2023-07-13T04:11:47;96223.31;;;17.32;100.00
50384;BME280;36301;48.310;12.786;2023-07-13T04:14:14;96215.66;;;17.34;100.00
50384;BME280;36301;48.310;12.786;2023-07-13T04:16:41;96216.84;;;17.30;100.00
50384;BME280;36301;48.310;12.786;2023-07-13T04:19:08;96213.03;;;17.31;100.00
50384;BME280;36301;48.310;12.786;2023-07-13T04:21:36;96217.56;;;17.34;100.00
50384;BME280;36301;48.310;12.786;2023-07-13T04:24:03;96221.00;;;17.34;100.00
50384;BME280;36301;48.310;12.786;2023-07-13T04:26:30;96224.78;;;17.37;100.00
50384;BME280;36301;48.310;12.786;2023-07-13T04:28:57;96225.53;;;17.37;100.00
50384;BME280;36301;48.310;12.786;2023-07-13T04:31:24;96231.31;;;17.36;100.00
50384;BME280;36301;48.310;12.786;2023-07-13T04:33:50;96220.19;;;17.37;100.00
50384;BME280;36301;48.310;12.786;2023-07-13T04:36:18;96211.84;;;17.32;100.00
50384;BME280;36301;48.310;12.786;2023-07-13T04:38:44;96225.50;;;17.41;100.00
50384;BME280;36301;48.310;12.786;2023-07-13T04:41:11;96231.56;;;17.45;100.00
50384;BME280;36301;48.310;12.786;2023-07-13T04:43:38;96228.47;;;17.47;100.00
50384;BME280;36301;48.310;12.786;2023-07-13T04:46:11;96227.31;;;17.48;100.00
50384;BME280;36301;48.310;12.786;2023-07-13T04:48:38;96232.63;;;17.51;100.00
50384;BME280;36301;48.310;12.786;2023-07-13T04:51:06;96218.19;;;17.45;100.00
50384;BME280;36301;48.310;12.786;2023-07-13T04:53:33;96219.94;;;17.55;100.00
50384;BME280;36301;48.310;12.786;2023-07-13T04:56:01;96223.78;;;17.54;100.00
50384;BME280;36301;48.310;12.786;2023-07-13T04:58:28;96226.78;;;17.60;100.00
50384;BME280;36301;48.310;12.786;2023-07-13T05:01:03;96226.03;;;17.59;100.00
50384;BME280;36301;48.310;12.786;2023-07-13T05:03:30;96227.53;;;17.60;100.00
50384;BME280;36301;48.310;12.786;2023-07-13T05:06:00;96229.78;;;17.62;100.00
50384;BME280;36301;48.310;12.786;2023-07-13T05:08:27;96236.75;;;17.56;100.00
50384;BME280;36301;48.310;12.786;2023-07-13T05:10:53;96245.22;;;17.54;100.00
50384;BME280;36301;48.310;12.786;2023-07-13T05:13:20;96250.16;;;17.56;100.00
50384;BME280;36301;48.310;12.786;2023-07-13T05:16:01;96251.81;;;17.46;100.00
50384;BME280;36301;48.310;12.786;2023-07-13T05:18:30;96245.75;;;17.42;100.00
50384;BME280;36301;48.310;12.786;2023-07-13T05:21:02;96252.56;;;17.47;100.00
50384;BME280;36301;48.310;12.786;2023-07-13T05:23:30;96250.66;;;17.47;100.00
50384;BME280;36301;48.310;12.786;2023-07-13T05:25:57;96257.88;;;17.50;100.00
50384;BME280;36301;48.310;12.786;2023-07-13T05:28:25;96251.34;;;17.51;100.00
50384;BME280;36301;48.310;12.786;2023-07-13T05:30:52;96255.19;;;17.50;100.00
50384;BME280;36301;48.310;12.786;2023-07-13T05:33:20;96243.03;;;17.46;100.00
50384;BME280;36301;48.310;12.786;2023-07-13T05:35:47;96250.44;;;17.61;100.00
50384;BME280;36301;48.310;12.786;2023-07-13T05:38:13;96260.25;;;17.72;100.00
50384;BME280;36301;48.310;12.786;2023-07-13T05:40:45;96257.91;;;17.77;100.00
50384;BME280;36301;48.310;12.786;2023-07-13T05:43:13;96262.50;;;17.77;100.00
50384;BME280;36301;48.310;12.786;2023-07-13T05:45:40;96271.72;;;17.76;100.00
50384;BME280;36301;48.310;12.786;2023-07-13T05:48:06;96274.78;;;17.74;100.00
50384;BME280;36301;48.310;12.786;2023-07-13T05:50:33;96270.53;;;17.77;100.00
50384;BME280;36301;48.310;12.786;2023-07-13T05:53:00;96261.00;;;17.76;100.00
50384;BME280;36301;48.310;12.786;2023-07-13T05:55:26;96276.50;;;17.88;100.00
50384;BME280;36301;48.310;12.786;2023-07-13T05:57:53;96276.78;;;17.94;100.00
50384;BME280;36301;48.310;12.786;2023-07-13T06:00:20;96278.38;;;17.91;100.00
50384;BME280;36301;48.310;12.786;2023-07-13T06:02:47;96280.22;;;17.94;100.00
50384;BME280;36301;48.310;12.786;2023-07-13T06:05:13;96272.66;;;17.89;100.00
50384;BME280;36301;48.310;12.786;2023-07-13T06:07:41;96285.94;;;17.96;100.00
50384;BME280;36301;48.310;12.786;2023-07-13T06:10:08;96280.88;;;18.02;100.00
50384;BME280;36301;48.310;12.786;2023-07-13T06:12:35;96267.44;;;18.05;100.00
50384;BME280;36301;48.310;12.786;2023-07-13T06:15:01;96280.56;;;18.23;100.00
50384;BME280;36301;48.310;12.786;2023-07-13T06:17:28;96289.63;;;18.29;100.00
50384;BME280;36301;48.310;12.786;2023-07-13T06:19:54;96287.38;;;18.28;100.00
50384;BME280;36301;48.310;12.786;2023-07-13T06:22:21;96288.78;;;18.36;100.00
50384;BME280;36301;48.310;12.786;2023-07-13T06:24:47;96291.75;;;18.41;100.00
50384;BME280;36301;48.310;12.786;2023-07-13T06:27:14;96289.97;;;18.55;100.00
50384;BME280;36301;48.310;12.786;2023-07-13T06:29:40;96299.56;;;18.99;100.00
50384;BME280;36301;48.310;12.786;2023-07-13T06:32:08;96299.41;;;19.46;100.00
50384;BME280;36301;48.310;12.786;2023-07-13T06:34:34;96304.97;;;19.55;100.00
50384;BME280;36301;48.310;12.786;2023-07-13T06:37:01;96309.00;;;19.47;100.00
50384;BME280;36301;48.310;12.786;2023-07-13T06:39:27;96302.75;;;19.34;100.00
50384;BME280;36301;48.310;12.786;2023-07-13T06:41:54;96305.63;;;19.23;100.00
50384;BME280;36301;48.310;12.786;2023-07-13T06:44:20;96295.97;;;19.26;100.00
50384;BME280;36301;48.310;12.786;2023-07-13T06:46:47;96308.75;;;19.22;100.00
50384;BME280;36301;48.310;12.786;2023-07-13T06:49:14;96309.13;;;19.20;100.00
50384;BME280;36301;48.310;12.786;2023-07-13T06:51:40;96311.28;;;19.09;100.00
50384;BME280;36301;48.310;12.786;2023-07-13T06:54:07;96318.16;;;19.10;100.00
50384;BME280;36301;48.310;12.786;2023-07-13T06:56:33;96320.91;;;19.06;100.00
50384;BME280;36301;48.310;12.786;2023-07-13T06:59:00;96318.63;;;19.05;100.00
50384;BME280;36301;48.310;12.786;2023-07-13T07:01:27;96322.25;;;18.95;100.00
50384;BME280;36301;48.310;12.786;2023-07-13T07:03:53;96321.94;;;18.92;100.00
50384;BME280;36301;48.310;12.786;2023-07-13T07:06:21;96328.81;;;18.93;100.00
50384;BME280;36301;48.310;12.786;2023-07-13T07:08:50;96322.44;;;19.07;100.00
50384;BME280;36301;48.310;12.786;2023-07-13T07:11:22;96328.97;;;19.06;100.00
50384;BME280;36301;48.310;12.786;2023-07-13T07:13:50;96339.28;;;19.28;100.00
50384;BME280;36301;48.310;12.786;2023-07-13T07:16:18;96342.88;;;19.21;100.00
50384;BME280;36301;48.310;12.786;2023-07-13T07:18:46;96340.88;;;19.25;100.00
50384;BME280;36301;48.310;12.786;2023-07-13T07:21:13;96336.81;;;19.57;100.00
50384;BME280;36301;48.310;12.786;2023-07-13T07:23:40;96340.16;;;19.81;100.00
50384;BME280;36301;48.310;12.786;2023-07-13T07:26:06;96338.16;;;19.85;100.00
50384;BME280;36301;48.310;12.786;2023-07-13T07:28:35;96336.25;;;20.02;100.00
50384;BME280;36301;48.310;12.786;2023-07-13T07:31:05;96336.25;;;20.83;100.00
50384;BME280;36301;48.310;12.786;2023-07-13T07:33:34;96337.16;;;21.09;100.00
50384;BME280;36301;48.310;12.786;2023-07-13T07:36:01;96340.22;;;21.79;100.00
50384;BME280;36301;48.310;12.786;2023-07-13T07:38:31;96347.81;;;21.42;100.00
50384;BME280;36301;48.310;12.786;2023-07-13T07:40:57;96332.16;;;22.04;100.00
50384;BME280;36301;48.310;12.786;2023-07-13T07:43:27;96343.91;;;21.97;100.00
50384;BME280;36301;48.310;12.786;2023-07-13T07:45:54;96343.38;;;22.02;100.00
50384;BME280;36301;48.310;12.786;2023-07-13T07:48:20;96346.63;;;22.48;97.52
50384;BME280;36301;48.310;12.786;2023-07-13T07:50:47;96355.34;;;23.00;98.38
50384;BME280;36301;48.310;12.786;2023-07-13T07:53:14;96358.31;;;24.52;88.11
50384;BME280;36301;48.310;12.786;2023-07-13T07:55:41;96370.16;;;23.30;91.14
50384;BME280;36301;48.310;12.786;2023-07-13T07:58:27;96361.69;;;22.71;95.09
50384;BME280;36301;48.310;12.786;2023-07-13T08:01:04;96361.19;;;22.51;95.82
50384;BME280;36301;48.310;12.786;2023-07-13T08:03:34;96375.84;;;21.99;98.13
50384;BME280;36301;48.310;12.786;2023-07-13T08:06:04;96375.66;;;21.52;99.97
50384;BME280;36301;48.310;12.786;2023-07-13T08:08:34;96385.84;;;21.44;100.00
50384;BME280;36301;48.310;12.786;2023-07-13T08:11:05;96384.97;;;21.18;99.33
50384;BME280;36301;48.310;12.786;2023-07-13T08:13:52;96381.34;;;21.24;98.27
50384;BME280;36301;48.310;12.786;2023-07-13T08:16:22;96378.16;;;21.30;99.18
50384;BME280;36301;48.310;12.786;2023-07-13T08:18:48;96384.31;;;21.30;97.16
50384;BME280;36301;48.310;12.786;2023-07-13T08:21:15;96387.06;;;21.27;98.59
50384;BME280;36301;48.310;12.786;2023-07-13T08:23:42;96403.19;;;20.97;99.91
50384;BME280;36301;48.310;12.786;2023-07-13T08:26:09;96397.72;;;21.01;100.00
50384;BME280;36301;48.310;12.786;2023-07-13T08:28:35;96392.72;;;20.70;100.00
50384;BME280;36301;48.310;12.786;2023-07-13T08:31:04;96391.88;;;20.73;100.00
50384;BME280;36301;48.310;12.786;2023-07-13T08:33:31;96388.81;;;21.04;100.00
50384;BME280;36301;48.310;12.786;2023-07-13T08:35:57;96384.63;;;21.32;100.00
50384;BME280;36301;48.310;12.786;2023-07-13T08:38:24;96380.06;;;21.58;98.13
50384;BME280;36301;48.310;12.786;2023-07-13T08:40:53;96384.09;;;21.66;97.88
50384;BME280;36301;48.310;12.786;2023-07-13T08:43:29;96389.66;;;21.59;99.41
50384;BME280;36301;48.310;12.786;2023-07-13T08:48:38;96396.09;;;21.20;95.61
50384;BME280;36301;48.310;12.786;2023-07-13T08:51:22;96401.84;;;21.06;96.87
50384;BME280;36301;48.310;12.786;2023-07-13T08:53:53;96403.34;;;21.07;98.28
50384;BME280;36301;48.310;12.786;2023-07-13T08:56:23;96411.44;;;20.90;97.80
50384;BME280;36301;48.310;12.786;2023-07-13T08:59:11;96413.31;;;20.61;100.00
50384;BME280;36301;48.310;12.786;2023-07-13T09:02:00;96421.63;;;20.50;100.00
50384;BME280;36301;48.310;12.786;2023-07-13T09:04:39;96426.31;;;20.62;100.00
50384;BME280;36301;48.310;12.786;2023-07-13T09:07:31;96420.97;;;20.42;100.00
50384;BME280;36301;48.310;12.786;2023-07-13T09:12:44;96428.28;;;20.26;100.00
50384;BME280;36301;48.310;12.786;2023-07-13T09:15:26;96419.47;;;20.25;100.00
50384;BME280;36301;48.310;12.786;2023-07-13T09:17:58;96431.81;;;20.23;100.00
50384;BME280;36301;48.310;12.786;2023-07-13T09:20:30;96431.75;;;20.42;100.00
50384;BME280;36301;48.310;12.786;2023-07-13T09:23:01;96428.38;;;20.58;100.00
50384;BME280;36301;48.310;12.786;2023-07-13T09:25:36;96434.84;;;20.41;100.00
50384;BME280;36301;48.310;12.786;2023-07-13T09:28:12;96433.22;;;20.47;100.00
50384;BME280;36301;48.310;12.786;2023-07-13T09:30:59;96436.75;;;20.60;99.30
50384;BME280;36301;48.310;12.786;2023-07-13T09:33:27;96431.63;;;20.50;97.51
50384;BME280;36301;48.310;12.786;2023-07-13T09:35:56;96436.44;;;20.75;97.76
50384;BME280;36301;48.310;12.786;2023-07-13T09:38:27;96438.28;;;20.94;96.82
50384;BME280;36301;48.310;12.786;2023-07-13T09:41:09;96442.53;;;21.24;95.72
50384;BME280;36301;48.310;12.786;2023-07-13T09:46:38;96451.66;;;21.14;95.38
50384;BME280;36301;48.310;12.786;2023-07-13T09:49:07;96450.34;;;21.18;94.99
50384;BME280;36301;48.310;12.786;2023-07-13T09:51:34;96448.25;;;21.42;93.57
50384;BME280;36301;48.310;12.786;2023-07-13T09:54:01;96438.41;;;21.36;93.73
50384;BME280;36301;48.310;12.786;2023-07-13T09:56:29;96447.16;;;21.07;93.90
50384;BME280;36301;48.310;12.786;2023-07-13T09:58:57;96439.44;;;20.77;94.39
50384;BME280;36301;48.310;12.786;2023-07-13T10:01:38;96456.78;;;20.92;94.54
50384;BME280;36301;48.310;12.786;2023-07-13T10:04:12;96458.97;;;20.81;96.61
50384;BME280;36301;48.310;12.786;2023-07-13T10:06:40;96448.78;;;20.72;95.92
50384;BME280;36301;48.310;12.786;2023-07-13T10:09:15;96451.97;;;20.67;94.69
50384;BME280;36301;48.310;12.786;2023-07-13T10:11:41;96452.38;;;20.49;97.45
50384;BME280;36301;48.310;12.786;2023-07-13T10:14:14;96455.47;;;20.47;95.80
50384;BME280;36301;48.310;12.786;2023-07-13T10:16:44;96449.69;;;20.49;96.64
50384;BME280;36301;48.310;12.786;2023-07-13T10:19:24;96462.44;;;20.45;95.28
50384;BME280;36301;48.310;12.786;2023-07-13T10:21:53;96458.53;;;20.50;95.37
50384;BME280;36301;48.310;12.786;2023-07-13T10:24:32;96462.47;;;20.78;95.03
50384;BME280;36301;48.310;12.786;2023-07-13T10:27:20;96457.28;;;21.19;91.02
50384;BME280;36301;48.310;12.786;2023-07-13T10:32:20;96464.88;;;22.12;87.59
50384;BME280;36301;48.310;12.786;2023-07-13T10:34:48;96459.25;;;22.19;89.54
50384;BME280;36301;48.310;12.786;2023-07-13T10:37:30;96468.69;;;21.98;90.10
50384;BME280;36301;48.310;12.786;2023-07-13T10:39:57;96460.38;;;21.63;87.33
50384;BME280;36301;48.310;12.786;2023-07-13T10:42:29;96458.06;;;21.04;91.01
50384;BME280;36301;48.310;12.786;2023-07-13T10:44:57;96474.25;;;21.16;90.74
50384;BME280;36301;48.310;12.786;2023-07-13T10:47:24;96475.09;;;20.97;84.65
50384;BME280;36301;48.310;12.786;2023-07-13T10:49:56;96478.06;;;21.03;85.02
50384;BME280;36301;48.310;12.786;2023-07-13T10:52:48;96471.75;;;21.09;84.97
50384;BME280;36301;48.310;12.786;2023-07-13T11:01:16;96469.19;;;21.18;86.31
50384;BME280;36301;48.310;12.786;2023-07-13T11:03:49;96479.91;;;20.89;85.67
50384;BME280;36301;48.310;12.786;2023-07-13T11:11:36;96481.25;;;20.65;83.03
50384;BME280;36301;48.310;12.786;2023-07-13T11:14:34;96481.91;;;20.33;84.22
50384;BME280;36301;48.310;12.786;2023-07-13T11:19:51;96485.19;;;20.60;82.40
50384;BME280;36301;48.310;12.786;2023-07-13T11:22:25;96489.41;;;21.10;83.10
50384;BME280;36301;48.310;12.786;2023-07-13T11:28:05;96477.59;;;21.53;79.24
50384;BME280;36301;48.310;12.786;2023-07-13T11:30:48;96493.97;;;21.75;79.96
50384;BME280;36301;48.310;12.786;2023-07-13T11:33:24;96479.69;;;21.62;78.62
50384;BME280;36301;48.310;12.786;2023-07-13T11:38:39;96490.84;;;21.31;76.86
50384;BME280;36301;48.310;12.786;2023-07-13T11:41:22;96491.34;;;21.42;76.88
50384;BME280;36301;48.310;12.786;2023-07-13T11:43:53;96492.75;;;21.47;75.24
50384;BME280;36301;48.310;12.786;2023-07-13T11:46:26;96486.84;;;21.52;75.32
50384;BME280;36301;48.310;12.786;2023-07-13T11:48:54;96485.44;;;21.47;72.46
50384;BME280;36301;48.310;12.786;2023-07-13T11:51:32;96482.81;;;21.60;71.09
50384;BME280;36301;48.310;12.786;2023-07-13T11:54:03;96488.59;;;21.59;72.01
50384;BME280;36301;48.310;12.786;2023-07-13T11:56:31;96481.72;;;21.87;68.45
50384;BME280;36301;48.310;12.786;2023-07-13T11:59:04;96480.81;;;21.77;65.92
50384;BME280;36301;48.310;12.786;2023-07-13T12:01:32;96477.00;;;22.03;64.05
50384;BME280;36301;48.310;12.786;2023-07-13T12:04:02;96459.72;;;22.43;66.17
50384;BME280;36301;48.310;12.786;2023-07-13T12:06:34;96450.22;;;22.76;64.98
50384;BME280;36301;48.310;12.786;2023-07-13T12:09:14;96457.00;;;22.94;59.67
50384;BME280;36301;48.310;12.786;2023-07-13T12:27:03;96443.84;;;24.09;54.20
50384;BME280;36301;48.310;12.786;2023-07-13T12:29:33;96436.84;;;23.55;50.87
50384;BME280;36301;48.310;12.786;2023-07-13T12:32:00;96433.56;;;23.60;48.12
50384;BME280;36301;48.310;12.786;2023-07-13T12:34:32;96435.22;;;24.01;46.97
50384;BME280;36301;48.310;12.786;2023-07-13T12:37:01;96420.38;;;23.62;46.11
50384;BME280;36301;48.310;12.786;2023-07-13T12:39:35;96425.69;;;23.88;46.36
50384;BME280;36301;48.310;12.786;2023-07-13T12:42:28;96425.38;;;24.17;46.71
50384;BME280;36301;48.310;12.786;2023-07-13T12:48:54;96418.38;;;24.59;45.90
50384;BME280;36301;48.310;12.786;2023-07-13T12:51:42;96422.25;;;24.18;46.66
50384;BME280;36301;48.310;12.786;2023-07-13T12:57:38;96412.06;;;24.00;48.21
50384;BME280;36301;48.310;12.786;2023-07-13T13:00:21;96410.84;;;24.23;46.40
50384;BME280;36301;48.310;12.786;2023-07-13T13:02:50;96409.28;;;24.13;46.45
50384;BME280;36301;48.310;12.786;2023-07-13T13:05:19;96419.19;;;24.38;48.25
50384;BME280;36301;48.310;12.786;2023-07-13T13:14:52;96408.03;;;24.85;46.70
50384;BME280;36301;48.310;12.786;2023-07-13T13:20:26;96405.16;;;23.99;48.72
50384;BME280;36301;48.310;12.786;2023-07-13T13:22:53;96398.88;;;23.80;52.19
50384;BME280;36301;48.310;12.786;2023-07-13T13:25:21;96389.84;;;23.74;50.97
50384;BME280;36301;48.310;12.786;2023-07-13T13:30:56;96385.69;;;24.45;49.85
50384;BME280;36301;48.310;12.786;2023-07-13T13:36:41;96377.31;;;24.70;49.27
50384;BME280;36301;48.310;12.786;2023-07-13T13:39:29;96387.25;;;24.64;50.43
50384;BME280;36301;48.310;12.786;2023-07-13T13:57:32;96384.06;;;24.56;48.99
50384;BME280;36301;48.310;12.786;2023-07-13T14:00:00;96381.16;;;24.11;52.38
50384;BME280;36301;48.310;12.786;2023-07-13T14:02:28;96384.69;;;24.29;49.92
50384;BME280;36301;48.310;12.786;2023-07-13T14:05:01;96386.72;;;24.38;51.61
50384;BME280;36301;48.310;12.786;2023-07-13T14:08:03;96384.41;;;23.96;51.22
50384;BME280;36301;48.310;12.786;2023-07-13T14:10:30;96386.19;;;23.90;51.42
50384;BME280;36301;48.310;12.786;2023-07-13T14:12:57;96383.19;;;23.97;53.25
50384;BME280;36301;48.310;12.786;2023-07-13T14:15:26;96390.09;;;23.89;52.60
50384;BME280;36301;48.310;12.786;2023-07-13T14:17:54;96384.91;;;24.04;53.56
50384;BME280;36301;48.310;12.786;2023-07-13T14:27:11;96380.13;;;24.57;50.24
50384;BME280;36301;48.310;12.786;2023-07-13T14:29:39;96376.88;;;24.72;48.66
50384;BME280;36301;48.310;12.786;2023-07-13T14:32:10;96376.66;;;24.39;50.64
50384;BME280;36301;48.310;12.786;2023-07-13T14:34:38;96363.47;;;24.19;52.78
50384;BME280;36301;48.310;12.786;2023-07-13T14:37:23;96365.69;;;24.11;52.44
50384;BME280;36301;48.310;12.786;2023-07-13T14:39:51;96375.06;;;24.69;50.53
50384;BME280;36301;48.310;12.786;2023-07-13T14:42:19;96370.47;;;25.15;50.44
50384;BME280;36301;48.310;12.786;2023-07-13T14:44:49;96367.16;;;25.11;49.67
50384;BME280;36301;48.310;12.786;2023-07-13T14:47:17;96373.56;;;24.77;48.21
50384;BME280;36301;48.310;12.786;2023-07-13T14:49:45;96362.59;;;24.99;48.29
50384;BME280;36301;48.310;12.786;2023-07-13T14:52:20;96362.03;;;25.13;48.26
50384;BME280;36301;48.310;12.786;2023-07-13T14:54:49;96361.47;;;24.41;49.77
50384;BME280;36301;48.310;12.786;2023-07-13T14:57:18;96363.50;;;23.97;49.54
50384;BME280;36301;48.310;12.786;2023-07-13T14:59:46;96380.41;;;24.10;50.51
50384;BME280;36301;48.310;12.786;2023-07-13T15:02:27;96362.53;;;24.44;48.85
50384;BME280;36301;48.310;12.786;2023-07-13T15:04:56;96370.00;;;23.99;50.61
50384;BME280;36301;48.310;12.786;2023-07-13T15:07:23;96368.97;;;23.75;51.28
50384;BME280;36301;48.310;12.786;2023-07-13T15:09:51;96364.44;;;23.50;52.09
50384;BME280;36301;48.310;12.786;2023-07-13T15:12:18;96368.94;;;23.31;53.46
50384;BME280;36301;48.310;12.786;2023-07-13T15:14:45;96368.97;;;23.53;53.06
50384;BME280;36301;48.310;12.786;2023-07-13T15:19:51;96363.56;;;24.46;52.36
50384;BME280;36301;48.310;12.786;2023-07-13T15:22:21;96373.28;;;24.75;50.75
50384;BME280;36301;48.310;12.786;2023-07-13T15:24:50;96369.69;;;25.05;50.17
50384;BME280;36301;48.310;12.786;2023-07-13T15:27:16;96372.44;;;24.47;50.40
50384;BME280;36301;48.310;12.786;2023-07-13T15:29:43;96373.13;;;24.29;51.63
50384;BME280;36301;48.310;12.786;2023-07-13T15:32:14;96386.16;;;24.21;51.96
50384;BME280;36301;48.310;12.786;2023-07-13T15:34:40;96387.44;;;23.98;52.24
50384;BME280;36301;48.310;12.786;2023-07-13T15:37:13;96382.88;;;24.26;50.65
50384;BME280;36301;48.310;12.786;2023-07-13T15:39:42;96380.25;;;24.04;52.06
50384;BME280;36301;48.310;12.786;2023-07-13T15:42:18;96387.81;;;23.88;52.01
50384;BME280;36301;48.310;12.786;2023-07-13T15:44:46;96382.50;;;23.75;52.46
50384;BME280;36301;48.310;12.786;2023-07-13T15:47:14;96382.81;;;24.39;51.56
50384;BME280;36301;48.310;12.786;2023-07-13T15:49:41;96381.84;;;24.24;51.28
50384;BME280;36301;48.310;12.786;2023-07-13T15:52:27;96380.19;;;23.95;51.22
50384;BME280;36301;48.310;12.786;2023-07-13T15:54:55;96372.34;;;23.88;51.42
50384;BME280;36301;48.310;12.786;2023-07-13T15:57:24;96374.66;;;23.99;51.83
50384;BME280;36301;48.310;12.786;2023-07-13T15:59:51;96380.72;;;23.81;50.27
50384;BME280;36301;48.310;12.786;2023-07-13T16:02:20;96375.47;;;23.77;50.12
50384;BME280;36301;48.310;12.786;2023-07-13T16:04:47;96380.06;;;23.68;52.22
50384;BME280;36301;48.310;12.786;2023-07-13T16:07:15;96380.88;;;23.87;51.42
50384;BME280;36301;48.310;12.786;2023-07-13T16:09:47;96384.91;;;23.82;52.12
50384;BME280;36301;48.310;12.786;2023-07-13T16:12:16;96379.97;;;23.80;51.35
50384;BME280;36301;48.310;12.786;2023-07-13T16:14:43;96380.72;;;23.81;51.53
50384;BME280;36301;48.310;12.786;2023-07-13T16:17:11;96380.13;;;23.86;51.48
50384;BME280;36301;48.310;12.786;2023-07-13T16:19:38;96377.75;;;23.88;52.38
50384;BME280;36301;48.310;12.786;2023-07-13T16:22:14;96386.22;;;23.68;51.05
50384;BME280;36301;48.310;12.786;2023-07-13T16:24:42;96380.09;;;23.55;52.59
50384;BME280;36301;48.310;12.786;2023-07-13T16:27:12;96392.09;;;23.32;52.25
50384;BME280;36301;48.310;12.786;2023-07-13T16:29:39;96396.22;;;23.46;54.11
50384;BME280;36301;48.310;12.786;2023-07-13T16:32:12;96404.03;;;23.44;52.30
50384;BME280;36301;48.310;12.786;2023-07-13T16:34:41;96401.13;;;23.38;52.43
50384;BME280;36301;48.310;12.786;2023-07-13T16:39:59;96413.72;;;23.32;53.80
50384;BME280;36301;48.310;12.786;2023-07-13T16:42:27;96412.88;;;23.44;52.41
50384;BME280;36301;48.310;12.786;2023-07-13T16:44:54;96410.44;;;23.37;53.15
50384;BME280;36301;48.310;12.786;2023-07-13T16:47:23;96418.28;;;23.44;52.07
50384;BME280;36301;48.310;12.786;2023-07-13T16:49:50;96397.28;;;23.26;53.68
50384;BME280;36301;48.310;12.786;2023-07-13T16:52:18;96408.03;;;23.17;53.96
50384;BME280;36301;48.310;12.786;2023-07-13T16:54:47;96414.16;;;22.70;53.45
50384;BME280;36301;48.310;12.786;2023-07-13T16:57:17;96417.31;;;22.43;53.39
50384;BME280;36301;48.310;12.786;2023-07-13T16:59:46;96413.84;;;22.30;55.31
50384;BME280;36301;48.310;12.786;2023-07-13T17:02:32;96423.88;;;22.30;55.62
50384;BME280;36301;48.310;12.786;2023-07-13T17:05:02;96429.19;;;22.33;55.47
50384;BME280;36301;48.310;12.786;2023-07-13T17:07:29;96427.31;;;22.30;56.31
50384;BME280;36301;48.310;12.786;2023-07-13T17:09:58;96408.16;;;22.15;55.14
50384;BME280;36301;48.310;12.786;2023-07-13T17:12:26;96413.41;;;22.19;55.92
50384;BME280;36301;48.310;12.786;2023-07-13T17:14:53;96428.84;;;22.44;55.27
50384;BME280;36301;48.310;12.786;2023-07-13T17:17:31;96423.88;;;22.55;54.53
50384;BME280;36301;48.310;12.786;2023-07-13T17:19:59;96423.22;;;22.64;54.95
50384;BME280;36301;48.310;12.786;2023-07-13T17:22:26;96425.94;;;22.64;54.15
50384;BME280;36301;48.310;12.786;2023-07-13T17:24:55;96441.59;;;22.56;55.07
50384;BME280;36301;48.310;12.786;2023-07-13T17:27:25;96431.44;;;22.47;56.85
50384;BME280;36301;48.310;12.786;2023-07-13T17:29:51;96432.72;;;22.56;54.87
50384;BME280;36301;48.310;12.786;2023-07-13T17:32:19;96429.72;;;22.41;56.96
50384;BME280;36301;48.310;12.786;2023-07-13T17:34:46;96429.28;;;22.42;56.27
50384;BME280;36301;48.310;12.786;2023-07-13T17:37:14;96441.16;;;22.32;56.37